Time;durP1;ratioP1;P1;durP2;ratioP2;P2;SDS_P1;SDS_P2;PMS_P1;PMS_P2;Temp;Humidity;BMP_temperature;BMP_pressure;BME280_temperature;BME280_humidity;BME280_pressure;Samples;Min_cycle;Max_cycle;Signal;HPM_P1;HPM_P2
2022/04/17 00:00:28;;;;;;;6.70;3.95;;;8.30;91.70;;;;;;5009735;28;20028;-60
2022/04/17 00:02:54;;;;;;;5.65;3.35;;;8.30;92.10;;;;;;5007226;28;20117;-61
2022/04/17 00:05:20;;;;;;;5.82;3.53;;;8.30;91.80;;;;;;5005876;28;20026;-61
2022/04/17 00:07:46;;;;;;;7.38;4.10;;;8.30;92.30;;;;;;5008607;28;20022;-61
2022/04/17 00:10:12;;;;;;;9.77;3.85;;;8.30;91.80;;;;;;5008628;28;20043;-60
2022/04/17 00:12:39;;;;;;;7.13;3.70;;;8.30;91.00;;;;;;5004722;28;20095;-61
2022/04/17 00:15:07;;;;;;;6.13;3.30;;;8.30;91.90;;;;;;5009573;28;20029;-62
2022/04/17 00:17:32;;;;;;;7.28;3.63;;;8.30;92.00;;;;;;5007012;28;20048;-60
2022/04/17 00:19:58;;;;;;;9.38;3.97;;;8.20;92.40;;;;;;5006433;28;20025;-61
2022/04/17 00:22:24;;;;;;;6.90;3.95;;;8.20;92.10;;;;;;5010837;28;20073;-58
2022/04/17 00:24:50;;;;;;;7.38;3.55;;;8.20;93.10;;;;;;5008851;28;20029;-60
2022/04/17 00:27:15;;;;;;;8.27;3.75;;;8.10;93.50;;;;;;5008190;28;20033;-59
2022/04/17 00:29:44;;;;;;;6.65;3.65;;;8.10;94.10;;;;;;5007222;28;20117;-60
2022/04/17 00:32:12;;;;;;;5.78;3.00;;;8.00;94.30;;;;;;5008663;28;20057;-62
2022/04/17 00:34:38;;;;;;;9.10;3.88;;;8.00;95.10;;;;;;5005325;28;20026;-60
2022/04/17 00:37:06;;;;;;;7.95;3.83;;;8.00;95.50;;;;;;5005126;28;20022;-61
2022/04/17 00:39:32;;;;;;;6.20;3.45;;;7.90;95.60;;;;;;5005485;28;20080;-61
2022/04/17 00:42:00;;;;;;;7.28;3.28;;;7.90;96.10;;;;;;5006577;28;20022;-61
2022/04/17 00:44:26;;;;;;;6.15;3.85;;;7.90;95.30;;;;;;5008589;28;20058;-61
2022/04/17 00:46:52;;;;;;;5.45;3.30;;;7.80;96.20;;;;;;5006089;28;20475;-61
2022/04/17 00:49:17;;;;;;;11.93;3.60;;;7.80;96.60;;;;;;5006037;28;20403;-60
2022/04/17 00:51:46;;;;;;;9.32;4.20;;;7.80;96.70;;;;;;5008989;28;20036;-58
2022/04/17 00:54:13;;;;;;;11.23;3.53;;;7.80;97.00;;;;;;5007365;28;20518;-55
2022/04/17 00:56:40;;;;;;;5.50;3.40;;;7.70;97.00;;;;;;5008936;28;20034;-61
2022/04/17 00:59:13;;;;;;;7.10;3.83;;;7.60;97.40;;;;;;5003991;28;20026;-59
2022/04/17 01:01:39;;;;;;;6.63;3.43;;;7.50;98.20;;;;;;5007767;28;20029;-60
2022/04/17 01:04:06;;;;;;;7.90;3.92;;;7.50;99.70;;;;;;5007150;28;20539;-58
2022/04/17 01:06:32;;;;;;;7.43;3.88;;;7.50;99.90;;;;;;5009960;28;20037;-60
2022/04/17 01:09:01;;;;;;;5.38;3.47;;;7.50;99.90;;;;;;5008556;28;20030;-60
2022/04/17 01:11:27;;;;;;;6.93;4.13;;;7.50;99.90;;;;;;5006803;28;20065;-57
2022/04/17 01:13:53;;;;;;;6.82;3.50;;;7.50;99.90;;;;;;5002783;28;20030;-57
2022/04/17 01:16:23;;;;;;;9.27;3.95;;;7.50;99.90;;;;;;5007747;28;20527;-58
2022/04/17 01:19:13;;;;;;;10.88;4.22;;;7.60;99.90;;;;;;5005263;28;20034;-62
2022/04/17 01:21:46;;;;;;;6.65;3.65;;;7.50;99.90;;;;;;5007481;28;20113;-59
2022/04/17 01:26:57;;;;;;;4.80;4.28;;;7.50;99.90;;;;;;5009621;28;20049;-57
2022/04/17 01:29:34;;;;;;;6.72;4.13;;;7.40;99.90;;;;;;5004716;28;20026;-58
2022/04/17 01:32:04;;;;;;;5.57;3.72;;;7.40;99.90;;;;;;5005655;28;20076;-56
2022/04/17 01:34:31;;;;;;;15.35;4.30;;;7.30;99.90;;;;;;5009952;28;20037;-57
2022/04/17 01:36:57;;;;;;;8.65;3.60;;;7.40;99.90;;;;;;5008284;28;20033;-60
2022/04/17 01:39:23;;;;;;;11.18;5.13;;;7.40;99.90;;;;;;5007016;28;20026;-60
2022/04/17 01:41:50;;;;;;;7.28;4.40;;;7.40;99.90;;;;;;5008447;28;20026;-59
2022/04/17 01:44:16;;;;;;;5.07;4.00;;;7.40;99.90;;;;;;5007578;28;20038;-61
2022/04/17 01:46:43;;;;;;;8.05;3.85;;;7.40;99.90;;;;;;5001780;28;20034;-57
2022/04/17 01:49:08;;;;;;;13.00;4.63;;;7.40;99.90;;;;;;5005723;28;20033;-60
2022/04/17 01:51:37;;;;;;;8.32;4.68;;;7.40;99.90;;;;;;5008686;28;20588;-57
2022/04/17 01:54:03;;;;;;;8.07;4.18;;;7.40;99.90;;;;;;5004937;28;20029;-61
2022/04/17 01:56:28;;;;;;;7.05;4.32;;;7.40;99.90;;;;;;5006032;28;20091;-59
2022/04/17 01:58:54;;;;;;;7.65;4.25;;;7.30;99.90;;;;;;5005948;28;20026;-58
2022/04/17 02:01:19;;;;;;;6.90;4.30;;;7.30;99.90;;;;;;5005177;28;20446;-61
2022/04/17 02:03:45;;;;;;;4.80;3.78;;;7.30;99.90;;;;;;5004055;28;20491;-58
2022/04/17 02:06:10;;;;;;;7.47;3.60;;;7.20;99.90;;;;;;5005078;28;20488;-57
2022/04/17 02:08:36;;;;;;;5.97;4.05;;;7.20;99.90;;;;;;5007770;28;20594;-57
2022/04/17 02:11:02;;;;;;;10.65;4.70;;;7.30;99.90;;;;;;5005936;28;20030;-62
2022/04/17 02:13:29;;;;;;;6.32;4.20;;;7.30;99.90;;;;;;5006425;28;20033;-60
2022/04/17 02:15:55;;;;;;;5.88;3.78;;;7.30;99.90;;;;;;5005592;28;20104;-59
2022/04/17 02:18:20;;;;;;;4.90;3.92;;;7.30;99.90;;;;;;5007433;28;20018;-60
2022/04/17 02:20:47;;;;;;;5.90;3.88;;;7.20;99.90;;;;;;5006185;28;20026;-57
2022/04/17 02:23:13;;;;;;;6.65;4.00;;;7.10;99.90;;;;;;5005823;28;20037;-59
2022/04/17 02:25:39;;;;;;;8.02;4.32;;;7.00;99.90;;;;;;5006669;28;20381;-59
2022/04/17 02:28:04;;;;;;;7.20;4.10;;;7.00;99.90;;;;;;5005475;28;20416;-58
2022/04/17 02:30:30;;;;;;;8.15;4.03;;;6.90;99.90;;;;;;5003722;28;20029;-59
2022/04/17 02:32:55;;;;;;;7.50;4.43;;;6.80;99.90;;;;;;5001267;28;20066;-59
2022/04/17 02:35:21;;;;;;;5.90;3.97;;;6.80;99.90;;;;;;5005263;28;20503;-59
2022/04/17 02:37:46;;;;;;;7.90;4.30;;;6.80;99.90;;;;;;5006027;28;20042;-62
2022/04/17 02:40:12;;;;;;;7.47;3.75;;;6.80;99.90;;;;;;5006902;28;20033;-61
2022/04/17 02:42:37;;;;;;;6.70;3.83;;;6.80;99.90;;;;;;5006253;28;20030;-59
2022/04/17 02:45:04;;;;;;;5.40;3.83;;;6.80;99.90;;;;;;5005198;28;20029;-60
2022/04/17 02:47:46;;;;;;;8.43;4.55;;;6.80;99.90;;;;;;5008856;28;20431;-62
2022/04/17 02:50:16;;;;;;;8.38;4.50;;;6.90;99.90;;;;;;5007896;28;20037;-62
2022/04/17 02:52:42;;;;;;;7.03;4.10;;;6.90;99.90;;;;;;5005931;28;20054;-61
2022/04/17 02:55:08;;;;;;;5.60;3.85;;;6.90;99.90;;;;;;5005694;28;20030;-58
2022/04/17 02:57:34;;;;;;;7.38;3.83;;;6.90;99.90;;;;;;5002901;28;20482;-61
2022/04/17 03:00:00;;;;;;;7.40;3.60;;;6.80;99.90;;;;;;5001896;28;20033;-59
2022/04/17 03:07:55;;;;;;;4.53;4.07;;;6.80;99.90;;;;;;5001360;28;20100;-62
2022/04/17 03:10:21;;;;;;;7.47;4.05;;;6.80;99.90;;;;;;5007542;28;20594;-60
2022/04/17 03:12:46;;;;;;;6.75;4.45;;;6.70;99.90;;;;;;4995769;28;20450;-60
2022/04/17 03:15:12;;;;;;;6.05;4.40;;;6.60;99.90;;;;;;5002788;28;20030;-61
2022/04/17 03:17:38;;;;;;;5.22;3.75;;;6.50;99.90;;;;;;5005736;28;20022;-58
2022/04/17 03:20:05;;;;;;;6.60;4.15;;;6.50;99.90;;;;;;5006965;28;20038;-60
2022/04/17 03:22:32;;;;;;;8.65;4.10;;;6.50;99.90;;;;;;5008719;28;20030;-59
2022/04/17 03:25:00;;;;;;;7.13;3.85;;;6.50;99.90;;;;;;5008016;28;20049;-60
2022/04/17 03:27:25;;;;;;;6.82;4.35;;;6.50;99.90;;;;;;5004206;28;20034;-62
2022/04/17 03:29:51;;;;;;;8.20;3.75;;;6.40;99.90;;;;;;5005621;28;20037;-62
2022/04/17 03:32:16;;;;;;;4.38;3.97;;;6.40;99.90;;;;;;5003750;28;20065;-58
2022/04/17 03:34:42;;;;;;;9.07;4.22;;;6.30;99.90;;;;;;5010339;28;20079;-61
2022/04/17 03:37:08;;;;;;;12.68;4.57;;;6.30;99.90;;;;;;5008599;28;20030;-61
2022/04/17 03:39:34;;;;;;;9.40;4.03;;;6.10;99.90;;;;;;5009377;28;20022;-59
2022/04/17 03:42:00;;;;;;;8.13;4.63;;;6.00;99.90;;;;;;5004146;28;20412;-58
2022/04/17 03:44:26;;;;;;;6.68;4.30;;;6.00;99.90;;;;;;5010266;28;20017;-58
2022/04/17 03:46:52;;;;;;;9.65;3.72;;;5.90;99.90;;;;;;5011068;28;20480;-58
2022/04/17 03:49:17;;;;;;;7.63;4.13;;;6.00;99.90;;;;;;5011526;28;20251;-60
2022/04/17 03:51:43;;;;;;;5.10;4.20;;;6.00;99.90;;;;;;5010199;28;20033;-61
2022/04/17 03:54:09;;;;;;;8.70;4.50;;;6.00;99.90;;;;;;5009741;28;20045;-62
2022/04/17 03:56:34;;;;;;;8.38;4.18;;;6.10;99.90;;;;;;5005476;28;20204;-62
2022/04/17 03:59:01;;;;;;;6.95;4.03;;;6.10;99.90;;;;;;5003545;28;20027;-61
2022/04/17 04:01:27;;;;;;;5.85;3.80;;;6.20;99.90;;;;;;5003280;28;20026;-61
2022/04/17 04:03:54;;;;;;;7.18;3.90;;;6.20;99.90;;;;;;5003670;28;20026;-59
2022/04/17 04:06:21;;;;;;;9.75;3.78;;;6.20;99.90;;;;;;5003869;28;20022;-62
2022/04/17 04:08:48;;;;;;;6.95;4.40;;;6.20;99.90;;;;;;5003698;28;20022;-60
2022/04/17 04:11:14;;;;;;;6.55;4.18;;;6.20;99.90;;;;;;5002199;28;20033;-61
2022/04/17 04:13:42;;;;;;;11.23;4.70;;;6.20;99.90;;;;;;5002726;28;20034;-61
2022/04/17 04:16:07;;;;;;;8.50;4.30;;;6.10;99.90;;;;;;5003247;28;20032;-62
2022/04/17 04:18:33;;;;;;;8.10;3.88;;;6.10;99.90;;;;;;5003396;28;20025;-62
2022/04/17 04:20:59;;;;;;;6.53;3.40;;;6.00;99.90;;;;;;5002174;28;20025;-60
2022/04/17 04:23:24;;;;;;;14.30;4.30;;;5.90;99.90;;;;;;5007249;28;20026;-58
2022/04/17 04:25:50;;;;;;;9.57;4.20;;;5.90;99.90;;;;;;5019722;28;20419;-59
2022/04/17 04:28:34;;;;;;;5.88;3.88;;;5.80;99.90;;;;;;5000907;28;20034;-59
2022/04/17 04:31:21;;;;;;;7.63;4.93;;;5.60;99.90;;;;;;5004546;28;20133;-59
2022/04/17 04:33:46;;;;;;;5.32;4.40;;;5.40;99.90;;;;;;5000752;28;20022;-58
2022/04/17 04:36:12;;;;;;;8.07;4.20;;;5.40;99.90;;;;;;5008129;28;20029;-60
2022/04/17 04:38:39;;;;;;;6.72;4.25;;;5.40;99.90;;;;;;5008218;28;20072;-58
2022/04/17 04:41:04;;;;;;;6.07;3.70;;;5.50;99.90;;;;;;5006307;28;20049;-58
2022/04/17 04:43:30;;;;;;;8.18;4.10;;;5.50;99.90;;;;;;5009292;28;20056;-62
2022/04/17 04:46:09;;;;;;;6.15;3.58;;;5.60;99.90;;;;;;5004293;28;20034;-59
2022/04/17 04:51:28;;;;;;;6.22;3.90;;;5.50;99.90;;;;;;5009143;28;20045;-59
2022/04/17 04:53:56;;;;;;;8.10;3.83;;;5.50;99.90;;;;;;5006512;28;20117;-60
2022/04/17 04:56:22;;;;;;;6.90;4.13;;;5.40;99.90;;;;;;5003564;28;20034;-59
2022/04/17 04:58:48;;;;;;;11.32;3.63;;;5.30;99.90;;;;;;5004863;28;20022;-60
2022/04/17 05:01:14;;;;;;;6.32;3.95;;;5.40;99.90;;;;;;5008486;28;20080;-59
2022/04/17 05:03:41;;;;;;;7.38;3.63;;;5.50;99.90;;;;;;5009542;28;20049;-60
2022/04/17 05:06:07;;;;;;;10.30;3.90;;;5.50;99.90;;;;;;5007729;28;20088;-62
2022/04/17 05:08:33;;;;;;;7.53;3.38;;;5.50;99.90;;;;;;5006184;28;20021;-59
2022/04/17 05:10:59;;;;;;;4.65;3.30;;;5.60;99.90;;;;;;5007377;28;20034;-59
2022/04/17 05:13:25;;;;;;;7.95;3.67;;;5.60;99.90;;;;;;5006565;28;20085;-58
2022/04/17 05:15:50;;;;;;;6.22;4.10;;;5.70;99.90;;;;;;5010397;28;20117;-58
2022/04/17 05:18:15;;;;;;;5.78;3.72;;;5.60;99.90;;;;;;5010457;28;20026;-60
2022/04/17 05:20:41;;;;;;;8.00;4.20;;;5.60;99.90;;;;;;5009317;28;20026;-61
2022/04/17 05:23:18;;;;;;;6.45;3.70;;;5.60;99.90;;;;;;5008222;28;20050;-61
2022/04/17 05:25:48;;;;;;;9.30;3.75;;;5.60;99.90;;;;;;5008652;28;20060;-61
2022/04/17 05:28:14;;;;;;;9.18;4.07;;;5.60;99.90;;;;;;5005654;28;20381;-58
2022/04/17 05:30:40;;;;;;;6.65;3.58;;;5.60;99.90;;;;;;5008274;28;20494;-60
2022/04/17 05:33:06;;;;;;;7.00;3.47;;;5.60;99.90;;;;;;5083761;22;20108;-53
2022/04/17 05:35:32;;;;;;;7.55;2.80;;;5.70;99.90;;;;;;5085802;28;20028;-57
2022/04/17 05:37:58;;;;;;;4.97;2.88;;;5.70;99.90;;;;;;5090258;28;20042;-54
2022/04/17 05:40:23;;;;;;;5.82;3.38;;;5.80;99.90;;;;;;5082862;28;20060;-56
2022/04/17 05:42:49;;;;;;;5.35;3.20;;;5.90;99.90;;;;;;5070192;28;20533;-56
2022/04/17 05:45:14;;;;;;;4.30;2.95;;;5.90;99.90;;;;;;5069686;28;20111;-59
2022/04/17 05:47:40;;;;;;;5.22;2.72;;;6.00;99.90;;;;;;5068895;28;20039;-53
2022/04/17 05:50:06;;;;;;;8.43;3.20;;;6.10;99.90;;;;;;5070115;28;20032;-55
2022/04/17 05:52:32;;;;;;;5.80;3.30;;;6.20;99.90;;;;;;5071818;28;20436;-52
2022/04/17 05:54:58;;;;;;;5.65;2.70;;;6.30;99.90;;;;;;5068772;28;20047;-56
2022/04/17 05:57:24;;;;;;;5.78;3.33;;;6.40;99.90;;;;;;5070382;28;20024;-53
2022/04/17 05:59:49;;;;;;;5.90;3.17;;;6.40;99.90;;;;;;5071821;28;20397;-57
2022/04/17 06:02:15;;;;;;;5.10;2.97;;;6.50;99.90;;;;;;5069801;28;20028;-54
2022/04/17 06:04:41;;;;;;;5.65;3.47;;;6.60;99.90;;;;;;5070834;28;20032;-56
2022/04/17 06:07:07;;;;;;;4.18;3.20;;;6.70;99.90;;;;;;5070783;28;20029;-56
2022/04/17 06:09:33;;;;;;;8.05;3.53;;;6.80;99.90;;;;;;5070438;28;20025;-54
2022/04/17 06:11:58;;;;;;;7.90;3.65;;;6.90;99.90;;;;;;5072449;28;20043;-59
2022/04/17 06:14:24;;;;;;;12.02;3.55;;;6.90;99.90;;;;;;5073291;28;20036;-57
2022/04/17 06:16:49;;;;;;;6.50;3.58;;;7.00;99.90;;;;;;5072084;28;20035;-54
2022/04/17 06:19:15;;;;;;;9.70;4.15;;;7.00;99.90;;;;;;5068429;28;20440;-59
2022/04/17 06:21:40;;;;;;;5.85;2.80;;;7.10;99.90;;;;;;5069348;28;20039;-56
2022/04/17 06:24:06;;;;;;;6.55;3.55;;;7.10;99.90;;;;;;5070583;28;20033;-53
2022/04/17 06:26:33;;;;;;;11.40;4.22;;;7.20;99.90;;;;;;5070900;28;20051;-56
2022/04/17 06:29:03;;;;;;;8.20;3.25;;;7.20;99.90;;;;;;5072485;28;20097;-55
2022/04/17 06:31:29;;;;;;;4.10;3.03;;;7.30;99.90;;;;;;5072889;28;20111;-52
2022/04/17 06:33:55;;;;;;;6.38;3.40;;;7.40;99.90;;;;;;5071635;28;20036;-54
2022/04/17 06:36:20;;;;;;;6.45;3.05;;;7.40;99.90;;;;;;5067340;28;20036;-53
2022/04/17 06:38:46;;;;;;;5.43;2.78;;;7.50;99.90;;;;;;5064382;28;20044;-57
2022/04/17 06:41:12;;;;;;;6.60;3.75;;;7.50;99.90;;;;;;5064320;28;20029;-56
2022/04/17 06:43:37;;;;;;;5.03;3.05;;;7.50;99.90;;;;;;5068967;28;20304;-55
2022/04/17 06:46:03;;;;;;;5.95;3.35;;;7.60;99.90;;;;;;5064494;28;20475;-54
2022/04/17 06:48:29;;;;;;;7.05;3.08;;;7.70;99.90;;;;;;5069598;28;20134;-54
2022/04/17 06:50:56;;;;;;;11.38;3.28;;;7.70;99.90;;;;;;5062384;28;20083;-58
2022/04/17 06:53:22;;;;;;;6.32;3.13;;;7.80;99.90;;;;;;5065368;28;20048;-52
2022/04/17 06:55:48;;;;;;;5.80;3.22;;;7.90;99.90;;;;;;5065332;28;20024;-55
2022/04/17 06:58:18;;;;;;;6.22;2.95;;;7.90;99.90;;;;;;5063137;28;20020;-56
2022/04/17 07:00:44;;;;;;;6.70;3.15;;;8.00;99.90;;;;;;5061684;28;20031;-56
2022/04/17 07:03:09;;;;;;;4.20;2.78;;;8.10;99.90;;;;;;5060277;28;20098;-57
2022/04/17 07:05:35;;;;;;;5.03;2.95;;;8.20;99.90;;;;;;5055861;28;20409;-53
2022/04/17 07:08:03;;;;;;;8.23;2.88;;;8.20;99.90;;;;;;5059580;28;20094;-56
2022/04/17 07:10:30;;;;;;;12.95;2.75;;;8.30;99.90;;;;;;5060364;28;20494;-52
2022/04/17 07:12:56;;;;;;;6.82;2.80;;;8.30;99.90;;;;;;5062551;28;20104;-56
2022/04/17 07:15:24;;;;;;;6.72;3.20;;;8.50;99.90;;;;;;5063461;28;20025;-56
2022/04/17 07:17:50;;;;;;;5.15;2.72;;;8.50;99.90;;;;;;5068208;28;20504;-52
2022/04/17 07:20:16;;;;;;;6.93;2.45;;;8.60;99.90;;;;;;5064361;28;20050;-56
2022/04/17 07:22:42;;;;;;;5.82;2.60;;;8.70;99.90;;;;;;5060730;28;20024;-52
2022/04/17 07:25:09;;;;;;;4.00;2.35;;;8.80;99.90;;;;;;5061100;28;20029;-55
2022/04/17 07:27:36;;;;;;;5.60;2.67;;;8.90;99.90;;;;;;5071336;28;20486;-57
2022/04/17 07:30:23;;;;;;;4.18;2.90;;;8.90;99.90;;;;;;5067840;28;20040;-53
2022/04/17 07:32:51;;;;;;;6.68;2.45;;;9.00;99.90;;;;;;5073230;28;20401;-54
2022/04/17 07:35:18;;;;;;;5.90;2.65;;;9.20;99.90;;;;;;5074829;28;20444;-56
2022/04/17 07:37:51;;;;;;;5.82;2.45;;;9.30;99.90;;;;;;5072632;28;20029;-59
2022/04/17 07:40:19;;;;;;;5.45;2.22;;;9.30;99.90;;;;;;5065649;28;20079;-56
2022/04/17 07:42:45;;;;;;;6.40;2.33;;;9.40;99.90;;;;;;5070374;28;20017;-55
2022/04/17 07:45:12;;;;;;;3.80;1.92;;;9.50;99.90;;;;;;5074603;28;20055;-53
2022/04/17 07:47:38;;;;;;;4.25;2.60;;;9.60;99.90;;;;;;5072709;28;20036;-54
2022/04/17 07:50:07;;;;;;;4.05;2.20;;;9.70;99.90;;;;;;5070881;28;20037;-56
2022/04/17 07:52:34;;;;;;;5.45;2.53;;;9.70;99.90;;;;;;5074063;28;20020;-53
2022/04/17 07:55:00;;;;;;;7.20;3.35;;;9.80;99.90;;;;;;5069625;28;20133;-56
2022/04/17 07:57:26;;;;;;;5.97;2.47;;;9.90;99.90;;;;;;5070719;28;20032;-52
2022/04/17 07:59:55;;;;;;;5.28;2.20;;;10.00;99.90;;;;;;5068185;28;20031;-54
2022/04/17 08:02:22;;;;;;;3.95;2.05;;;10.10;99.90;;;;;;5072414;28;20158;-52
2022/04/17 08:04:51;;;;;;;6.65;2.35;;;10.20;99.90;;;;;;5066412;28;20021;-53
2022/04/17 08:07:18;;;;;;;5.07;2.13;;;10.30;99.90;;;;;;5073017;28;20406;-53
2022/04/17 08:09:44;;;;;;;4.03;2.17;;;10.40;99.90;;;;;;5065551;28;20562;-56
2022/04/17 08:12:09;;;;;;;3.78;2.42;;;10.50;99.90;;;;;;5066509;28;20119;-52
2022/04/17 08:14:35;;;;;;;4.20;2.35;;;10.70;99.90;;;;;;5071442;28;20048;-51
2022/04/17 08:17:00;;;;;;;2.60;1.90;;;10.80;99.90;;;;;;5073152;28;20104;-51
2022/04/17 08:19:26;;;;;;;4.90;2.55;;;10.80;99.90;;;;;;5068914;28;20082;-50
2022/04/17 08:21:51;;;;;;;5.18;1.80;;;10.90;99.90;;;;;;5071791;28;20024;-52
2022/04/17 08:24:18;;;;;;;7.40;2.30;;;11.00;99.90;;;;;;5073448;28;20016;-57
2022/04/17 08:26:44;;;;;;;6.07;2.47;;;11.10;99.90;;;;;;5073790;28;20028;-55
2022/04/17 08:29:10;;;;;;;3.85;2.40;;;11.20;99.90;;;;;;5070602;28;20035;-56
2022/04/17 08:31:35;;;;;;;6.70;2.53;;;11.30;99.90;;;;;;5072881;28;20032;-59
2022/04/17 08:34:01;;;;;;;4.47;2.15;;;11.40;99.90;;;;;;5072645;28;20457;-54
2022/04/17 08:36:26;;;;;;;4.88;2.03;;;11.50;99.90;;;;;;5070737;28;20045;-57
2022/04/17 08:38:52;;;;;;;4.05;1.98;;;11.60;99.90;;;;;;5073318;28;20017;-56
2022/04/17 08:41:20;;;;;;;5.07;2.40;;;11.70;99.90;;;;;;5073057;28;20097;-55
2022/04/17 08:43:46;;;;;;;4.20;2.15;;;11.80;99.90;;;;;;5073226;28;20066;-57
2022/04/17 08:46:12;;;;;;;4.18;2.10;;;12.00;99.90;;;;;;5075424;28;20028;-57
2022/04/17 08:48:37;;;;;;;4.28;1.88;;;12.10;99.90;;;;;;5073638;28;20028;-59
2022/04/17 08:51:05;;;;;;;5.07;2.30;;;12.10;99.90;;;;;;5073043;28;20039;-59
2022/04/17 08:53:34;;;;;;;4.50;1.98;;;12.20;99.90;;;;;;5072265;28;20024;-55
2022/04/17 08:56:00;;;;;;;7.25;2.22;;;12.30;99.90;;;;;;5072012;28;20032;-54
2022/04/17 08:58:26;;;;;;;6.78;2.28;;;12.30;99.90;;;;;;5072635;28;20021;-56
2022/04/17 09:00:51;;;;;;;2.17;1.90;;;12.40;99.90;;;;;;5072347;28;20107;-58
2022/04/17 09:03:17;;;;;;;4.78;1.75;;;12.50;99.90;;;;;;5072801;28;20060;-55
2022/04/17 09:05:43;;;;;;;4.75;2.40;;;12.70;99.90;;;;;;5072728;28;20074;-55
2022/04/17 09:08:17;;;;;;;4.88;2.20;;;12.90;99.90;;;;;;5072695;28;20024;-53
2022/04/17 09:10:53;;;;;;;3.72;2.00;;;13.10;99.90;;;;;;5072171;28;20012;-54
2022/04/17 09:13:29;;;;;;;3.70;1.88;;;13.20;99.90;;;;;;5072207;28;20422;-54
2022/04/17 09:15:56;;;;;;;5.85;1.80;;;13.40;99.90;;;;;;5066052;28;20044;-55
2022/04/17 09:18:22;;;;;;;5.35;2.20;;;13.50;99.90;;;;;;5070846;28;20070;-57
2022/04/17 09:20:48;;;;;;;4.95;2.00;;;13.50;99.90;;;;;;5072526;28;20020;-51
2022/04/17 09:23:13;;;;;;;3.95;1.60;;;13.60;99.90;;;;;;5072887;28;20020;-53
2022/04/17 09:25:39;;;;;;;3.95;1.90;;;13.70;99.90;;;;;;5072411;28;20474;-57
2022/04/17 09:28:07;;;;;;;6.80;2.20;;;14.00;99.90;;;;;;5071470;28;20121;-52
2022/04/17 09:30:35;;;;;;;3.08;1.73;;;14.10;99.90;;;;;;5070640;28;20017;-56
2022/04/17 09:33:14;;;;;;;4.60;2.10;;;14.30;99.90;;;;;;5070684;28;20025;-55
2022/04/17 09:35:52;;;;;;;5.47;2.42;;;14.20;99.90;;;;;;5070788;28;20035;-59
2022/04/17 09:38:18;;;;;;;5.05;2.35;;;14.30;99.90;;;;;;5070330;28;20021;-54
2022/04/17 09:40:48;;;;;;;4.72;1.80;;;14.50;99.90;;;;;;5072219;28;20084;-53
2022/04/17 09:43:16;;;;;;;5.05;1.80;;;14.60;99.90;;;;;;5066040;28;20035;-53
2022/04/17 09:46:05;;;;;;;4.25;2.00;;;14.80;99.90;;;;;;5065137;28;20021;-54
2022/04/17 09:48:43;;;;;;;3.75;1.70;;;14.90;99.90;;;;;;5068620;28;20036;-57
2022/04/17 09:51:22;;;;;;;4.78;1.45;;;15.10;99.80;;;;;;5072061;28;20150;-51
2022/04/17 09:54:06;;;;;;;4.63;2.00;;;15.30;99.80;;;;;;5070549;28;20048;-57
2022/04/17 09:56:39;;;;;;;2.25;1.55;;;15.50;99.90;;;;;;5066448;28;20372;-55
2022/04/17 09:59:18;;;;;;;4.45;1.40;;;15.40;99.30;;;;;;5071613;28;20478;-53
2022/04/17 10:01:46;;;;;;;6.95;1.60;;;15.70;98.80;;;;;;5071647;28;20036;-53
2022/04/17 10:04:13;;;;;;;4.85;1.70;;;16.00;98.50;;;;;;5085401;28;20031;-58
2022/04/17 10:06:39;;;;;;;4.03;1.50;;;16.10;98.50;;;;;;5071959;28;20032;-54
2022/04/17 10:09:05;;;;;;;8.95;4.63;;;16.30;98.20;;;;;;5071790;28;20100;-53
2022/04/17 10:11:32;;;;;;;5.00;1.63;;;16.30;98.00;;;;;;5071410;28;20025;-53
2022/04/17 10:13:59;;;;;;;3.03;1.85;;;16.60;96.20;;;;;;5071208;28;20398;-56
2022/04/17 10:16:30;;;;;;;3.78;2.38;;;16.40;95.30;;;;;;5071585;28;20063;-55
2022/04/17 10:18:59;;;;;;;3.40;1.65;;;16.50;96.30;;;;;;5070037;28;20560;-53
2022/04/17 10:21:28;;;;;;;4.50;1.88;;;16.50;94.00;;;;;;5067121;28;20024;-55
2022/04/17 10:24:01;;;;;;;4.50;1.50;;;16.70;93.90;;;;;;5071390;28;20060;-57
2022/04/17 10:26:28;;;;;;;1.33;1.10;;;16.80;92.40;;;;;;5070716;28;20032;-53
2022/04/17 10:28:56;;;;;;;4.13;1.33;;;16.90;91.90;;;;;;5068492;28;20049;-56
2022/04/17 10:31:22;;;;;;;2.50;1.58;;;17.20;91.80;;;;;;5066807;28;20500;-54
2022/04/17 10:34:10;;;;;;;5.07;1.60;;;17.40;92.40;;;;;;5071099;28;20066;-55
2022/04/17 10:36:50;;;;;;;3.30;1.52;;;17.80;92.50;;;;;;5070582;28;20028;-56
2022/04/17 10:39:30;;;;;;;4.15;1.45;;;17.90;90.90;;;;;;5071217;28;20020;-56
2022/04/17 10:41:57;;;;;;;1.88;1.35;;;17.90;92.70;;;;;;5065067;28;20494;-56
2022/04/17 10:44:28;;;;;;;4.00;1.60;;;18.00;92.00;;;;;;5069380;28;20025;-56
2022/04/17 10:46:54;;;;;;;2.92;1.33;;;18.10;92.90;;;;;;5065274;28;20036;-51
2022/04/17 10:49:22;;;;;;;2.83;1.20;;;18.20;91.80;;;;;;5071237;28;20032;-55
2022/04/17 10:51:55;;;;;;;6.88;1.60;;;18.40;91.90;;;;;;5070312;28;20036;-59
2022/04/17 10:54:21;;;;;;;5.23;1.60;;;18.10;90.40;;;;;;5071374;28;20155;-59
2022/04/17 10:56:56;;;;;;;9.73;1.90;;;18.50;90.20;;;;;;5064471;28;20115;-57
2022/04/17 10:59:33;;;;;;;2.88;1.48;;;18.60;89.20;;;;;;5060581;28;20062;-58
2022/04/17 11:02:08;;;;;;;3.78;1.30;;;18.80;87.70;;;;;;5057426;28;20021;-58
2022/04/17 11:04:50;;;;;;;4.22;1.23;;;18.80;87.10;;;;;;5063285;28;20424;-56
2022/04/17 11:07:15;;;;;;;3.70;1.23;;;18.80;91.00;;;;;;5059536;28;20052;-57
2022/04/17 11:09:44;;;;;;;3.55;1.45;;;19.00;87.80;;;;;;5058085;28;20059;-59
2022/04/17 11:12:18;;;;;;;3.83;1.90;;;18.90;88.90;;;;;;5062411;28;20070;-52
2022/04/17 11:15:00;;;;;;;3.95;1.65;;;18.90;90.40;;;;;;5060655;28;20636;-57
2022/04/17 11:17:28;;;;;;;7.07;1.48;;;19.00;90.20;;;;;;5064327;28;20111;-54
2022/04/17 11:19:59;;;;;;;3.15;1.63;;;18.80;87.80;;;;;;5065588;28;20429;-56
2022/04/17 11:22:27;;;;;;;1.70;1.23;;;18.90;86.40;;;;;;5067904;28;20119;-60
2022/04/17 11:24:56;;;;;;;1.60;1.20;;;19.00;86.60;;;;;;5064843;28;20081;-58
2022/04/17 11:27:42;;;;;;;3.42;1.33;;;19.10;88.10;;;;;;5060931;28;20020;-57
2022/04/17 11:30:30;;;;;;;3.83;1.20;;;19.10;87.80;;;;;;5060883;28;20028;-57
2022/04/17 11:32:56;;;;;;;3.17;1.30;;;19.30;88.40;;;;;;5065922;28;20064;-57
2022/04/17 11:35:23;;;;;;;3.63;1.20;;;19.70;85.60;;;;;;5088502;22;20077;-64
2022/04/17 11:38:06;;;;;;;2.33;1.55;;;19.70;83.80;;;;;;5062853;28;20028;-62
2022/04/17 11:40:37;;;;;;;2.83;1.30;;;19.40;85.00;;;;;;5059406;28;20107;-63
2022/04/17 11:43:29;;;;;;;6.10;1.17;;;19.40;83.50;;;;;;5061701;28;20785;-63
2022/04/17 11:46:04;;;;;;;5.00;1.08;;;19.70;85.70;;;;;;5036674;28;20704;-65
2022/04/17 11:48:30;;;;;;;3.92;1.20;;;19.80;85.20;;;;;;5046136;28;20037;-63
2022/04/17 11:50:55;;;;;;;3.15;1.10;;;20.10;83.90;;;;;;5043449;28;20541;-63
2022/04/17 11:53:21;;;;;;;2.55;1.25;;;20.40;81.00;;;;;;5044706;28;20040;-61
2022/04/17 11:55:47;;;;;;;2.83;0.98;;;20.30;80.60;;;;;;5042637;28;20589;-62
2022/04/17 11:58:26;;;;;;;5.38;1.25;;;20.30;80.20;;;;;;5050042;28;20523;-60
2022/04/17 12:00:59;;;;;;;3.88;1.35;;;20.30;79.10;;;;;;5051252;28;20025;-62
2022/04/17 12:03:43;;;;;;;6.43;1.10;;;20.10;78.10;;;;;;5052238;28;20071;-61
2022/04/17 12:06:09;;;;;;;2.83;1.30;;;20.20;80.10;;;;;;5044507;28;20037;-61
2022/04/17 12:08:40;;;;;;;2.83;1.27;;;20.40;85.90;;;;;;5048676;28;20029;-61
2022/04/17 12:11:08;;;;;;;2.40;1.25;;;20.70;80.30;;;;;;5051390;28;20017;-63
2022/04/17 12:13:33;;;;;;;5.80;1.63;;;20.90;75.70;;;;;;5048442;28;20514;-58
2022/04/17 12:16:01;;;;;;;4.07;1.20;;;20.80;79.40;;;;;;5051267;28;20029;-61
2022/04/17 12:18:27;;;;;;;3.78;1.30;;;21.00;76.60;;;;;;5050830;28;20017;-61
2022/04/17 12:21:02;;;;;;;1.38;1.00;;;21.20;73.70;;;;;;5046036;28;20028;-60
2022/04/17 12:23:29;;;;;;;1.67;0.85;;;21.20;77.00;;;;;;5048018;28;20029;-59
2022/04/17 12:25:55;;;;;;;3.08;1.35;;;21.40;73.80;;;;;;5046686;28;20017;-63
2022/04/17 12:28:22;;;;;;;2.05;0.98;;;21.20;73.50;;;;;;5050590;28;20083;-64
2022/04/17 12:30:48;;;;;;;2.03;1.20;;;21.10;72.90;;;;;;5046195;28;20105;-62
2022/04/17 12:33:24;;;;;;;1.38;1.02;;;21.30;70.10;;;;;;5048121;28;20064;-60
2022/04/17 12:36:06;;;;;;;6.32;1.10;;;21.70;71.80;;;;;;5039324;28;20070;-61
2022/04/17 12:38:33;;;;;;;3.25;1.25;;;21.00;70.20;;;;;;5044919;28;20096;-63
2022/04/17 12:40:59;;;;;;;2.35;1.05;;;21.40;74.20;;;;;;5042901;28;20052;-59
2022/04/17 12:43:29;;;;;;;2.05;1.30;;;21.70;72.90;;;;;;5049643;28;20029;-61
2022/04/17 12:45:56;;;;;;;1.40;0.85;;;21.60;72.90;;;;;;5049323;28;20039;-63
2022/04/17 12:48:27;;;;;;;1.17;1.00;;;21.80;71.00;;;;;;5045465;28;20070;-60
2022/04/17 12:51:04;;;;;;;2.35;1.60;;;21.90;70.00;;;;;;5049519;28;20423;-62
2022/04/17 12:53:37;;;;;;;2.72;1.17;;;22.00;69.40;;;;;;5048305;28;20125;-61
2022/04/17 12:56:04;;;;;;;3.38;1.10;;;22.20;69.30;;;;;;5045255;28;20029;-65
2022/04/17 12:58:45;;;;;;;1.50;0.73;;;22.00;69.40;;;;;;5042783;28;20026;-66
2022/04/17 13:01:22;;;;;;;2.33;1.00;;;21.90;69.30;;;;;;5045320;28;20530;-62
2022/04/17 13:03:48;;;;;;;3.08;0.90;;;22.20;68.30;;;;;;5049790;28;20077;-62
2022/04/17 13:06:23;;;;;;;3.42;1.10;;;22.30;63.20;;;;;;5048829;28;20124;-63
2022/04/17 13:09:12;;;;;;;3.35;1.02;;;22.30;69.20;;;;;;5048003;28;20497;-61